METAR Reports

 

KMRH - Beaufort, North Carolina, USA
Distance from station: E 8mi, 12km
Updated: Mon, 18-Oct-2021 10:58pm EDT
Clear
Clear
 Wind from W
Wind: W 5 mph , 7 km/h
Temperature: 57°F , 14°C
Dew Point: 46°F , 8°C
Humidity: 67%
Barometer: 30.12 inHg , 1020 hPa
Clouds: Clear
Visibility: 10 miles , 16 km
2021/10/19 02:58 KMRH 190258Z AUTO 28004KT 10SM CLR 14/08 A3012 RMK AO2 SLP200 I1000 I3/// T01440078 51016
KEWN - New Bern, North Carolina, USA
Distance from station: NW 33mi, 40km
Updated: Mon, 18-Oct-2021 10:54pm EDT
Clear
Clear
 Wind from calm
Wind: Calm
Temperature: 52°F , 11°C
Dew Point: 45°F , 7°C
Humidity: 77%
Barometer: 30.13 inHg , 1020.3 hPa
Clouds: Clear
Visibility: 10 miles , 16 km
2021/10/19 02:54 KEWN 190254Z AUTO 00000KT 10SM CLR 11/07 A3013 RMK AO2 SLP202 T01110067 51012
 
KPGV - Greenville, North Carolina, USA
Updated: Mon, 18-Oct-2021 11:35pm EDT
Clear
Clear
 Wind from calm
Wind: Calm
Temperature: 50°F , 10°C
Dew Point: 45°F , 7°C
Humidity: 82%
Barometer: 30.13 inHg , 1020.3 hPa
Clouds: Clear
Visibility: 10 miles , 16 km
2021/10/19 03:35 KPGV 190335Z AUTO 00000KT 10SM CLR 10/07 A3013 RMK AO2
KOAJ - Richlands, North Carolina, USA
Updated: Mon, 18-Oct-2021 10:56pm EDT
Mist, Clear
Mist, Clear
 Wind from calm
Wind: Calm
Temperature: 48°F , 9°C
Dew Point: 45°F , 7°C
Humidity: 87%
Barometer: 30.14 inHg , 1020.7 hPa
Summary: Mist
Clouds: Clear
Visibility: 6 miles , 10 km
2021/10/19 02:56 KOAJ 190256Z AUTO 00000KT 6SM BR CLR 09/07 A3014 RMK AO2 SLP208 T00890067 51012
 
KISO - Kinston, North Carolina, USA
Distance from station: NW 73mi, 87km
Updated: Mon, 18-Oct-2021 11:35pm EDT
Clear
Clear
 Wind from WSW
Wind: WSW 3 mph , 6 km/h
Temperature: 46°F , 8°C
Dew Point: 43°F , 6°C
Humidity: 87%
Barometer: 30.13 inHg , 1020.3 hPa
Clouds: Clear
Visibility: 10 miles , 16 km
2021/10/19 03:35 KISO 190335Z AUTO 25003KT 10SM CLR 08/06 A3013 RMK AO2 T00810062
KHSE - Buxton, North Carolina, USA
Distance from station: NE 89mi, 102km
Updated: Mon, 18-Oct-2021 10:51pm EDT
Clear
Clear
 Wind from WNW
Wind: WNW 7 mph , 11 km/h
Temperature: 64°F , 18°C
Dew Point: 46°F , 8°C
Humidity: 52%
Barometer: 30.10 inHg , 1019.3 hPa
Clouds: Clear
Visibility: 10 miles , 16 km
2021/10/19 02:51 KHSE 190251Z AUTO 30006KT 10SM CLR 18/08 A3010 RMK AO2 SLP192 T01830078 51017
 
KNCA - Jacksonville, North Carolina, USA
Distance from station: SW 48mi, 60km
Updated: Mon, 18-Oct-2021 9:56pm EDT
NOT Current
Clear
Clear
 Wind from WSW
Wind: WSW 3 mph , 6 km/h
Temperature: 54°F , 12°C
Dew Point: 45°F , 7°C
Humidity: 72%
Barometer: 30.12 inHg , 1020 hPa
Clouds: Clear
Visibility: 10 miles , 16 km
2021/10/19 01:56 KNCA 190156Z 25003KT 10SM CLR 12/07 A3012 RMK AO2 SLP200 T01220072
KNKT - Cherry Point, North Carolina, USA
Distance from station: NW 9mi, 12km
Updated: Mon, 18-Oct-2021 9:56pm EDT
NOT Current
Clear
Clear
 Wind from calm
Wind: Calm
Temperature: 55°F , 13°C
Dew Point: 43°F , 6°C
Humidity: 63%
Barometer: 30.12 inHg , 1020 hPa
Clouds: Clear
Visibility: 7 miles , 11 km
2021/10/19 01:56 KNKT 190156Z 00000KT 7SM SKC 13/06 A3012 RMK SLP196 T01280061
 
KOCW - Washington, North Carolina, USA
Distance from station: N 73mi, 87km
Updated: Sun, 17-Oct-2021 8:35am EDT
NOT Current
Clear
Clear
 Wind from NW
Wind: NW 5 mph , 7 km/h
Temperature: 54°F , 12°C
Dew Point: 46°F , 8°C
Humidity: 77%
Barometer: 30.04 inHg , 1017.3 hPa
Clouds: Clear
Visibility: 10 miles , 16 km
2021/10/17 12:35 KOCW 171235Z AUTO 32004KT 10SM CLR 12/08 A3004 RMK AO2 T01200075
KDPL - Kenansville, North Carolina, USA
Distance from station: W 86mi, 98km
Updated: Mon, 18-Oct-2021 11:35pm EDT
Clear
Clear
 
Temperature: 45°F , 7°C
Dew Point: 43°F , 6°C
Humidity: 93%
Barometer: 30.14 inHg , 1020.7 hPa
Clouds: Clear
Visibility: 10 miles , 16 km
2021/10/19 03:35 KDPL 190335Z 10SM CLR 07/06 A3014 RMK AO2
 
KMQI - Manteo, North Carolina, USA
Updated: Mon, 18-Oct-2021 11:35pm EDT
Clear
Clear
 Wind from W
Wind: W 6 mph , 9 km/h
Temperature: 61°F , 16°C
Dew Point: 45°F , 7°C
Humidity: 55%
Barometer: 30.09 inHg , 1019 hPa
Clouds: Clear
Visibility: 10 miles , 16 km
2021/10/19 03:35 KMQI 190335Z AUTO 28005KT 10SM CLR 16/07 A3009 RMK AO2 T01610073
KFFA - Kill Devil Hills, North Carolina, USA
Updated: Mon, 18-Oct-2021 11:35pm EDT
Clear
Clear
 Wind from WSW
Wind: WSW 6 mph , 9 km/h
Temperature: 63°F , 17°C
Dew Point: 45°F , 7°C
Humidity: 52%
Barometer: 30.07 inHg , 1018.3 hPa
Clouds: Clear
Visibility: 10 miles , 16 km
2021/10/19 03:35 KFFA 190335Z AUTO 24005KT 10SM CLR 17/07 A3007 RMK AO2 T01650070
 
KILM - Wilmington, North Carolina, USA
Updated: Mon, 18-Oct-2021 10:53pm EDT
Clear
Clear
 Wind from calm
Wind: Calm
Temperature: 54°F , 12°C
Dew Point: 46°F , 8°C
Humidity: 77%
Barometer: 30.14 inHg , 1020.7 hPa
Clouds: Clear
Visibility: 10 miles , 16 km
2021/10/19 02:53 KILM 190253Z AUTO 00000KT 10SM CLR 12/08 A3014 RMK AO2 SLP205 LAST T01170083 51014
KRDU - Raleigh, North Carolina, USA
Updated: Mon, 18-Oct-2021 10:51pm EDT
Clear
Clear
 Wind from calm
Wind: Calm
Temperature: 50°F , 10°C
Dew Point: 46°F , 8°C
Humidity: 88%
Barometer: 30.14 inHg , 1020.7 hPa
Clouds: Clear
Visibility: 10 miles , 16 km
2021/10/19 02:51 KRDU 190251Z 00000KT 10SM CLR 10/08 A3014 RMK AO2 SLP203 T01000078 51016